sensor_id;sensor_type;location;lat;lon;timestamp;temperature;humidity
5621;DHT22;2832;50.864;12.186;2023-04-03T00:01:29;7.90;99.90
5621;DHT22;2832;50.864;12.186;2023-04-03T00:03:57;8.10;99.90
5621;DHT22;2832;50.864;12.186;2023-04-03T00:06:26;8.10;99.90
5621;DHT22;2832;50.864;12.186;2023-04-03T00:08:54;8.10;99.90
5621;DHT22;2832;50.864;12.186;2023-04-03T00:11:22;8.10;99.90
5621;DHT22;2832;50.864;12.186;2023-04-03T00:13:50;8.20;99.90
5621;DHT22;2832;50.864;12.186;2023-04-03T00:16:17;8.20;99.90
5621;DHT22;2832;50.864;12.186;2023-04-03T00:18:45;8.20;99.90
5621;DHT22;2832;50.864;12.186;2023-04-03T00:21:14;8.20;99.90
5621;DHT22;2832;50.864;12.186;2023-04-03T00:23:45;8.20;99.90
5621;DHT22;2832;50.864;12.186;2023-04-03T00:26:14;8.10;99.90
5621;DHT22;2832;50.864;12.186;2023-04-03T00:28:43;8.00;99.90
5621;DHT22;2832;50.864;12.186;2023-04-03T00:31:14;8.00;99.90
5621;DHT22;2832;50.864;12.186;2023-04-03T00:33:44;8.10;99.90
5621;DHT22;2832;50.864;12.186;2023-04-03T00:36:13;8.10;99.90
5621;DHT22;2832;50.864;12.186;2023-04-03T00:38:46;8.10;99.90
5621;DHT22;2832;50.864;12.186;2023-04-03T00:41:17;8.10;99.90
5621;DHT22;2832;50.864;12.186;2023-04-03T00:43:47;8.20;99.90
5621;DHT22;2832;50.864;12.186;2023-04-03T00:46:16;8.20;99.90
5621;DHT22;2832;50.864;12.186;2023-04-03T00:48:47;8.30;99.90
5621;DHT22;2832;50.864;12.186;2023-04-03T00:51:21;8.30;99.90
5621;DHT22;2832;50.864;12.186;2023-04-03T00:53:56;8.10;99.90
5621;DHT22;2832;50.864;12.186;2023-04-03T00:56:27;8.20;99.90
5621;DHT22;2832;50.864;12.186;2023-04-03T00:59:00;8.20;99.90
5621;DHT22;2832;50.864;12.186;2023-04-03T01:01:32;8.30;99.90
5621;DHT22;2832;50.864;12.186;2023-04-03T01:04:01;8.30;99.90
5621;DHT22;2832;50.864;12.186;2023-04-03T01:06:35;8.30;99.90
5621;DHT22;2832;50.864;12.186;2023-04-03T01:09:09;8.20;99.90
5621;DHT22;2832;50.864;12.186;2023-04-03T01:11:38;8.30;99.90
5621;DHT22;2832;50.864;12.186;2023-04-03T01:14:07;8.20;99.90
5621;DHT22;2832;50.864;12.186;2023-04-03T01:16:36;8.20;99.90
5621;DHT22;2832;50.864;12.186;2023-04-03T01:19:08;8.20;99.90
5621;DHT22;2832;50.864;12.186;2023-04-03T01:22:02;8.20;99.90
5621;DHT22;2832;50.864;12.186;2023-04-03T01:24:37;8.20;99.90
5621;DHT22;2832;50.864;12.186;2023-04-03T01:27:09;8.20;99.90
5621;DHT22;2832;50.864;12.186;2023-04-03T01:29:40;8.20;99.90
5621;DHT22;2832;50.864;12.186;2023-04-03T01:32:11;8.10;99.90
5621;DHT22;2832;50.864;12.186;2023-04-03T01:34:41;8.20;99.90
5621;DHT22;2832;50.864;12.186;2023-04-03T01:37:12;8.20;99.90
5621;DHT22;2832;50.864;12.186;2023-04-03T01:39:43;8.20;99.90
5621;DHT22;2832;50.864;12.186;2023-04-03T04:44:42;8.30;99.90
5621;DHT22;2832;50.864;12.186;2023-04-03T04:47:12;8.30;99.90
5621;DHT22;2832;50.864;12.186;2023-04-03T04:49:41;8.30;99.90
5621;DHT22;2832;50.864;12.186;2023-04-03T04:52:10;8.30;99.90
5621;DHT22;2832;50.864;12.186;2023-04-03T04:54:39;8.20;99.90
5621;DHT22;2832;50.864;12.186;2023-04-03T04:57:08;8.20;99.90
5621;DHT22;2832;50.864;12.186;2023-04-03T04:59:42;8.10;99.90
5621;DHT22;2832;50.864;12.186;2023-04-03T05:02:11;8.10;99.90
5621;DHT22;2832;50.864;12.186;2023-04-03T05:04:41;8.10;99.90
5621;DHT22;2832;50.864;12.186;2023-04-03T05:07:11;8.10;99.90
5621;DHT22;2832;50.864;12.186;2023-04-03T05:09:43;8.10;99.90
5621;DHT22;2832;50.864;12.186;2023-04-03T05:12:13;8.00;99.90
5621;DHT22;2832;50.864;12.186;2023-04-03T05:14:44;8.00;99.90
5621;DHT22;2832;50.864;12.186;2023-04-03T05:17:13;8.00;99.90
5621;DHT22;2832;50.864;12.186;2023-04-03T05:19:42;8.00;99.90
5621;DHT22;2832;50.864;12.186;2023-04-03T05:22:11;8.10;99.90
5621;DHT22;2832;50.864;12.186;2023-04-03T05:24:40;8.10;99.90
5621;DHT22;2832;50.864;12.186;2023-04-03T05:27:10;8.10;99.90
5621;DHT22;2832;50.864;12.186;2023-04-03T05:29:39;8.10;99.90
5621;DHT22;2832;50.864;12.186;2023-04-03T05:32:13;8.10;99.90
5621;DHT22;2832;50.864;12.186;2023-04-03T05:34:42;8.00;99.90
5621;DHT22;2832;50.864;12.186;2023-04-03T05:37:11;8.00;99.90
5621;DHT22;2832;50.864;12.186;2023-04-03T05:39:39;8.00;99.90
5621;DHT22;2832;50.864;12.186;2023-04-03T05:42:07;7.90;99.90
5621;DHT22;2832;50.864;12.186;2023-04-03T07:49:00;6.10;99.90
5621;DHT22;2832;50.864;12.186;2023-04-03T07:51:28;6.30;99.90
5621;DHT22;2832;50.864;12.186;2023-04-03T07:53:56;6.10;99.90
5621;DHT22;2832;50.864;12.186;2023-04-03T07:56:24;6.20;99.90
5621;DHT22;2832;50.864;12.186;2023-04-03T07:58:52;6.30;99.90
5621;DHT22;2832;50.864;12.186;2023-04-03T08:01:20;6.40;99.90
5621;DHT22;2832;50.864;12.186;2023-04-03T08:03:48;6.30;99.90
5621;DHT22;2832;50.864;12.186;2023-04-03T08:06:20;6.40;99.90
5621;DHT22;2832;50.864;12.186;2023-04-03T08:08:52;6.50;99.90
5621;DHT22;2832;50.864;12.186;2023-04-03T08:11:25;6.60;99.90
5621;DHT22;2832;50.864;12.186;2023-04-03T08:13:56;6.60;99.90
5621;DHT22;2832;50.864;12.186;2023-04-03T08:16:25;6.70;99.90
5621;DHT22;2832;50.864;12.186;2023-04-03T08:18:55;6.70;99.90
5621;DHT22;2832;50.864;12.186;2023-04-03T08:21:26;6.80;99.90
5621;DHT22;2832;50.864;12.186;2023-04-03T08:23:54;6.60;99.90
5621;DHT22;2832;50.864;12.186;2023-04-03T08:26:27;6.30;99.90
5621;DHT22;2832;50.864;12.186;2023-04-03T08:29:00;6.20;99.90
5621;DHT22;2832;50.864;12.186;2023-04-03T08:31:30;6.10;99.90
5621;DHT22;2832;50.864;12.186;2023-04-03T08:34:03;6.30;99.90
5621;DHT22;2832;50.864;12.186;2023-04-03T08:36:40;6.40;99.90
5621;DHT22;2832;50.864;12.186;2023-04-03T08:39:11;6.50;99.90
5621;DHT22;2832;50.864;12.186;2023-04-03T08:41:47;6.60;99.90
5621;DHT22;2832;50.864;12.186;2023-04-03T08:44:29;6.60;99.90
5621;DHT22;2832;50.864;12.186;2023-04-03T08:47:14;6.50;99.90
5621;DHT22;2832;50.864;12.186;2023-04-03T10:48:41;6.40;98.70
5621;DHT22;2832;50.864;12.186;2023-04-03T10:51:24;6.40;99.20
5621;DHT22;2832;50.864;12.186;2023-04-03T10:56:46;6.40;98.50
5621;DHT22;2832;50.864;12.186;2023-04-03T10:59:24;6.40;97.70
5621;DHT22;2832;50.864;12.186;2023-04-03T11:01:56;6.30;97.50
5621;DHT22;2832;50.864;12.186;2023-04-03T11:04:31;6.40;98.20
5621;DHT22;2832;50.864;12.186;2023-04-03T11:07:07;6.30;98.10
5621;DHT22;2832;50.864;12.186;2023-04-03T11:09:40;6.40;98.70
5621;DHT22;2832;50.864;12.186;2023-04-03T11:12:13;6.40;98.40
5621;DHT22;2832;50.864;12.186;2023-04-03T11:14:47;6.40;98.00
5621;DHT22;2832;50.864;12.186;2023-04-03T11:17:27;6.40;98.30
5621;DHT22;2832;50.864;12.186;2023-04-03T11:20:03;6.40;97.80
5621;DHT22;2832;50.864;12.186;2023-04-03T11:22:36;6.50;97.90
5621;DHT22;2832;50.864;12.186;2023-04-03T11:25:15;6.60;98.00
5621;DHT22;2832;50.864;12.186;2023-04-03T11:27:48;6.60;98.00
5621;DHT22;2832;50.864;12.186;2023-04-03T11:30:20;6.60;98.00
5621;DHT22;2832;50.864;12.186;2023-04-03T11:33:18;6.50;97.50
5621;DHT22;2832;50.864;12.186;2023-04-03T11:35:53;6.60;97.80
5621;DHT22;2832;50.864;12.186;2023-04-03T11:38:26;6.60;97.70
5621;DHT22;2832;50.864;12.186;2023-04-03T11:40:57;6.60;98.00
5621;DHT22;2832;50.864;12.186;2023-04-03T11:43:28;6.60;97.70
5621;DHT22;2832;50.864;12.186;2023-04-03T11:45:58;6.80;98.80
5621;DHT22;2832;50.864;12.186;2023-04-03T11:48:48;6.80;98.10
5621;DHT22;2832;50.864;12.186;2023-04-03T11:51:40;6.70;97.60
5621;DHT22;2832;50.864;12.186;2023-04-03T11:54:43;6.80;97.70
5621;DHT22;2832;50.864;12.186;2023-04-03T12:01:05;6.90;98.50
5621;DHT22;2832;50.864;12.186;2023-04-03T12:12:59;6.90;98.20
5621;DHT22;2832;50.864;12.186;2023-04-03T12:15:51;6.90;98.40
5621;DHT22;2832;50.864;12.186;2023-04-03T12:18:56;7.10;98.90
5621;DHT22;2832;50.864;12.186;2023-04-03T12:24:42;6.90;97.10
5621;DHT22;2832;50.864;12.186;2023-04-03T12:27:34;6.80;96.90
5621;DHT22;2832;50.864;12.186;2023-04-03T12:30:21;6.80;97.50
5621;DHT22;2832;50.864;12.186;2023-04-03T12:33:04;6.60;97.10
5621;DHT22;2832;50.864;12.186;2023-04-03T12:35:44;6.70;97.40
5621;DHT22;2832;50.864;12.186;2023-04-03T12:41:23;6.80;96.80
5621;DHT22;2832;50.864;12.186;2023-04-03T12:46:57;6.80;97.80
5621;DHT22;2832;50.864;12.186;2023-04-03T13:48:56;7.30;97.10
5621;DHT22;2832;50.864;12.186;2023-04-03T13:51:27;7.30;96.50
5621;DHT22;2832;50.864;12.186;2023-04-03T13:54:12;7.20;96.30
5621;DHT22;2832;50.864;12.186;2023-04-03T13:56:43;7.30;97.20
5621;DHT22;2832;50.864;12.186;2023-04-03T13:59:26;7.30;96.60
5621;DHT22;2832;50.864;12.186;2023-04-03T14:02:16;7.30;96.10
5621;DHT22;2832;50.864;12.186;2023-04-03T14:04:53;7.20;96.40
5621;DHT22;2832;50.864;12.186;2023-04-03T14:07:25;7.10;96.00
5621;DHT22;2832;50.864;12.186;2023-04-03T14:09:54;7.10;95.90
5621;DHT22;2832;50.864;12.186;2023-04-03T14:12:27;7.00;96.00
5621;DHT22;2832;50.864;12.186;2023-04-03T14:15:03;7.10;96.70
5621;DHT22;2832;50.864;12.186;2023-04-03T14:17:34;7.20;97.10
5621;DHT22;2832;50.864;12.186;2023-04-03T14:20:10;7.30;96.40
5621;DHT22;2832;50.864;12.186;2023-04-03T14:22:49;7.10;96.70
5621;DHT22;2832;50.864;12.186;2023-04-03T14:25:17;7.10;96.40
5621;DHT22;2832;50.864;12.186;2023-04-03T14:27:48;7.10;97.00
5621;DHT22;2832;50.864;12.186;2023-04-03T14:30:18;7.10;96.70
5621;DHT22;2832;50.864;12.186;2023-04-03T14:32:48;7.10;96.70
5621;DHT22;2832;50.864;12.186;2023-04-03T14:35:25;7.20;96.90
5621;DHT22;2832;50.864;12.186;2023-04-03T14:37:56;7.30;96.60
5621;DHT22;2832;50.864;12.186;2023-04-03T14:40:29;7.30;97.20
5621;DHT22;2832;50.864;12.186;2023-04-03T14:43:02;7.20;96.10
5621;DHT22;2832;50.864;12.186;2023-04-03T14:45:33;7.20;96.10
5621;DHT22;2832;50.864;12.186;2023-04-03T14:48:01;7.10;96.10
5621;DHT22;2832;50.864;12.186;2023-04-03T16:51:21;7.20;95.90
5621;DHT22;2832;50.864;12.186;2023-04-03T16:53:49;7.30;96.20
5621;DHT22;2832;50.864;12.186;2023-04-03T16:56:17;7.30;96.00
5621;DHT22;2832;50.864;12.186;2023-04-03T16:58:46;7.30;95.80
5621;DHT22;2832;50.864;12.186;2023-04-03T17:01:25;7.40;96.30
5621;DHT22;2832;50.864;12.186;2023-04-03T17:03:54;7.30;95.60
5621;DHT22;2832;50.864;12.186;2023-04-03T17:06:23;7.30;95.80
5621;DHT22;2832;50.864;12.186;2023-04-03T17:08:51;7.20;95.10
5621;DHT22;2832;50.864;12.186;2023-04-03T17:11:19;7.20;95.50
5621;DHT22;2832;50.864;12.186;2023-04-03T17:13:49;7.30;95.50
5621;DHT22;2832;50.864;12.186;2023-04-03T17:16:18;7.30;95.40
5621;DHT22;2832;50.864;12.186;2023-04-03T17:18:45;7.30;95.60
5621;DHT22;2832;50.864;12.186;2023-04-03T17:21:14;7.30;95.30
5621;DHT22;2832;50.864;12.186;2023-04-03T17:23:47;7.30;95.70
5621;DHT22;2832;50.864;12.186;2023-04-03T17:26:19;7.20;95.20
5621;DHT22;2832;50.864;12.186;2023-04-03T17:28:50;7.10;94.90
5621;DHT22;2832;50.864;12.186;2023-04-03T17:31:19;7.10;95.60
5621;DHT22;2832;50.864;12.186;2023-04-03T17:33:52;7.40;95.30
5621;DHT22;2832;50.864;12.186;2023-04-03T17:36:21;7.20;95.20
5621;DHT22;2832;50.864;12.186;2023-04-03T17:38:51;7.30;95.30
5621;DHT22;2832;50.864;12.186;2023-04-03T17:41:20;7.40;95.70
5621;DHT22;2832;50.864;12.186;2023-04-03T17:43:48;7.50;95.70
5621;DHT22;2832;50.864;12.186;2023-04-03T17:46:18;7.60;95.60
5621;DHT22;2832;50.864;12.186;2023-04-03T17:48:45;7.50;94.70
5621;DHT22;2832;50.864;12.186;2023-04-03T21:53:55;8.40;99.60
5621;DHT22;2832;50.864;12.186;2023-04-03T21:56:24;8.50;99.90
5621;DHT22;2832;50.864;12.186;2023-04-03T21:58:52;8.40;99.70
5621;DHT22;2832;50.864;12.186;2023-04-03T22:01:20;8.30;99.70
5621;DHT22;2832;50.864;12.186;2023-04-03T22:03:49;8.30;99.80
5621;DHT22;2832;50.864;12.186;2023-04-03T22:06:17;8.30;99.90
5621;DHT22;2832;50.864;12.186;2023-04-03T22:08:45;8.30;99.90
5621;DHT22;2832;50.864;12.186;2023-04-03T22:11:15;8.30;99.90
5621;DHT22;2832;50.864;12.186;2023-04-03T22:13:44;8.40;99.90
5621;DHT22;2832;50.864;12.186;2023-04-03T22:16:12;8.30;99.90
5621;DHT22;2832;50.864;12.186;2023-04-03T22:18:41;8.30;99.90
5621;DHT22;2832;50.864;12.186;2023-04-03T22:21:09;8.40;99.90
5621;DHT22;2832;50.864;12.186;2023-04-03T22:23:37;8.30;99.90
5621;DHT22;2832;50.864;12.186;2023-04-03T22:26:07;8.30;99.90
5621;DHT22;2832;50.864;12.186;2023-04-03T22:28:38;8.30;99.90
5621;DHT22;2832;50.864;12.186;2023-04-03T22:31:08;8.30;99.90
5621;DHT22;2832;50.864;12.186;2023-04-03T22:33:38;8.30;99.90
5621;DHT22;2832;50.864;12.186;2023-04-03T22:36:08;8.30;99.90
5621;DHT22;2832;50.864;12.186;2023-04-03T22:38:37;8.30;99.90
5621;DHT22;2832;50.864;12.186;2023-04-03T22:41:09;8.20;99.60
5621;DHT22;2832;50.864;12.186;2023-04-03T22:43:39;8.20;99.90
5621;DHT22;2832;50.864;12.186;2023-04-03T22:46:08;8.20;99.90
5621;DHT22;2832;50.864;12.186;2023-04-03T22:48:36;8.20;99.90
5621;DHT22;2832;50.864;12.186;2023-04-03T22:51:08;8.20;99.90
5621;DHT22;2832;50.864;12.186;2023-04-03T22:53:36;8.20;99.90
5621;DHT22;2832;50.864;12.186;2023-04-03T22:56:07;8.20;99.90
5621;DHT22;2832;50.864;12.186;2023-04-03T22:58:36;8.20;99.90
5621;DHT22;2832;50.864;12.186;2023-04-03T23:01:06;8.20;99.90
5621;DHT22;2832;50.864;12.186;2023-04-03T23:03:36;8.20;99.90
5621;DHT22;2832;50.864;12.186;2023-04-03T23:06:05;8.20;99.90
5621;DHT22;2832;50.864;12.186;2023-04-03T23:08:34;8.20;99.90
5621;DHT22;2832;50.864;12.186;2023-04-03T23:11:03;8.20;99.90
5621;DHT22;2832;50.864;12.186;2023-04-03T23:13:32;8.20;99.90
5621;DHT22;2832;50.864;12.186;2023-04-03T23:16:00;8.20;99.90
5621;DHT22;2832;50.864;12.186;2023-04-03T23:18:30;8.30;99.90
5621;DHT22;2832;50.864;12.186;2023-04-03T23:21:00;8.20;99.90
5621;DHT22;2832;50.864;12.186;2023-04-03T23:23:28;8.20;99.90
5621;DHT22;2832;50.864;12.186;2023-04-03T23:26:05;8.20;99.90
5621;DHT22;2832;50.864;12.186;2023-04-03T23:28:34;8.20;99.90
5621;DHT22;2832;50.864;12.186;2023-04-03T23:31:04;8.30;99.90
5621;DHT22;2832;50.864;12.186;2023-04-03T23:33:36;8.20;99.90
5621;DHT22;2832;50.864;12.186;2023-04-03T23:36:08;8.20;99.90
5621;DHT22;2832;50.864;12.186;2023-04-03T23:38:37;8.30;99.90
5621;DHT22;2832;50.864;12.186;2023-04-03T23:41:05;8.30;99.90
5621;DHT22;2832;50.864;12.186;2023-04-03T23:43:33;8.20;99.90
5621;DHT22;2832;50.864;12.186;2023-04-03T23:46:00;8.30;99.90
5621;DHT22;2832;50.864;12.186;2023-04-03T23:48:28;8.30;99.90
5621;DHT22;2832;50.864;12.186;2023-04-03T23:50:57;8.20;99.90
5621;DHT22;2832;50.864;12.186;2023-04-03T23:53:25;8.20;99.90
5621;DHT22;2832;50.864;12.186;2023-04-03T23:55:53;8.20;99.90
5621;DHT22;2832;50.864;12.186;2023-04-03T23:58:21;8.20;99.90
